Time;durP1;ratioP1;P1;durP2;ratioP2;P2;SDS_P1;SDS_P2;PMS_P1;PMS_P2;Temp;Humidity;BMP_temperature;BMP_pressure;BME280_temperature;BME280_humidity;BME280_pressure;Samples;Min_cycle;Max_cycle;Signal;HPM_P1;HPM_P2
2023/09/18 00:01:39;;;;;;;61.90;26.80;;;;;;;;;;5103904;28;20123;-76
2023/09/18 00:04:05;;;;;;;57.70;24.25;;;;;;;;;;5093175;28;20047;-76
2023/09/18 00:06:32;;;;;;;131.98;27.30;;;;;;;;;;5096305;28;20109;-76
2023/09/18 00:08:58;;;;;;;43.25;23.02;;;;;;;;;;5099399;28;20379;-76
2023/09/18 00:11:24;;;;;;;43.83;23.15;;;;;;;;;;5106594;28;20038;-76
2023/09/18 00:13:50;;;;;;;100.03;26.67;;;;;;;;;;5111141;28;20120;-76
2023/09/18 00:16:16;;;;;;;111.50;26.45;;;;;;;;;;5103472;28;20139;-76
2023/09/18 00:18:44;;;;;;;57.17;23.98;;;;;;;;;;5105795;28;20118;-75
2023/09/18 00:21:10;;;;;;;117.65;26.05;;;;;;;;;;5098262;28;20036;-76
2023/09/18 00:23:39;;;;;;;69.80;23.23;;;;;;;;;;5110947;28;20082;-76
2023/09/18 00:26:05;;;;;;;86.55;24.10;;;;;;;;;;5103926;28;20047;-75
2023/09/18 00:28:31;;;;;;;50.50;24.02;;;;;;;;;;5096601;28;20040;-75
2023/09/18 00:30:57;;;;;;;91.60;24.63;;;;;;;;;;5112787;28;20195;-76
2023/09/18 00:33:23;;;;;;;63.65;23.42;;;;;;;;;;5097216;28;20055;-76
2023/09/18 00:35:50;;;;;;;64.32;24.27;;;;;;;;;;5113930;28;20096;-76
2023/09/18 00:38:17;;;;;;;45.67;22.98;;;;;;;;;;5111712;28;20052;-75
2023/09/18 00:40:43;;;;;;;57.35;23.33;;;;;;;;;;5110661;28;20074;-75
2023/09/18 00:43:10;;;;;;;34.22;22.25;;;;;;;;;;5113173;27;20371;-76
2023/09/18 00:45:38;;;;;;;48.40;24.10;;;;;;;;;;5115245;28;20047;-76
2023/09/18 00:48:04;;;;;;;90.40;25.85;;;;;;;;;;5112012;28;20040;-76
2023/09/18 00:50:31;;;;;;;82.05;26.63;;;;;;;;;;5114777;28;20494;-76
2023/09/18 00:52:58;;;;;;;76.70;24.90;;;;;;;;;;5110570;28;20158;-76
2023/09/18 00:55:24;;;;;;;79.88;26.35;;;;;;;;;;5100106;28;20040;-76
2023/09/18 00:57:50;;;;;;;81.38;28.48;;;;;;;;;;5115027;28;20035;-75
2023/09/18 01:00:17;;;;;;;125.97;30.10;;;;;;;;;;5112924;28;20043;-76
2023/09/18 01:02:44;;;;;;;134.63;32.05;;;;;;;;;;5098503;28;20048;-76
2023/09/18 01:05:11;;;;;;;155.90;32.47;;;;;;;;;;5102759;28;20514;-75
2023/09/18 01:07:37;;;;;;;237.90;36.85;;;;;;;;;;5110598;28;20100;-75
2023/09/18 01:10:03;;;;;;;174.05;33.08;;;;;;;;;;5116281;28;20123;-75
2023/09/18 01:12:50;;;;;;;208.57;36.20;;;;;;;;;;5110675;28;20048;-76
2023/09/18 01:15:25;;;;;;;194.30;34.63;;;;;;;;;;5094921;28;20090;-76
2023/09/18 01:17:51;;;;;;;175.70;35.20;;;;;;;;;;5108117;27;20404;-75
2023/09/18 01:20:17;;;;;;;254.65;38.78;;;;;;;;;;5097870;28;20071;-76
2023/09/18 01:22:43;;;;;;;302.17;39.75;;;;;;;;;;5115146;28;20075;-76
2023/09/18 01:25:10;;;;;;;235.57;36.05;;;;;;;;;;5099085;27;20078;-76
2023/09/18 01:27:36;;;;;;;160.30;32.60;;;;;;;;;;5103153;28;20054;-76
2023/09/18 01:30:02;;;;;;;172.98;33.35;;;;;;;;;;5105846;28;20055;-76
2023/09/18 01:32:30;;;;;;;161.93;34.33;;;;;;;;;;5109500;28;20459;-76
2023/09/18 01:34:57;;;;;;;100.57;30.20;;;;;;;;;;5111717;28;20051;-76
2023/09/18 01:37:24;;;;;;;108.97;30.85;;;;;;;;;;5115768;28;20128;-76
2023/09/18 01:39:52;;;;;;;81.53;29.13;;;;;;;;;;5106629;28;20056;-76
2023/09/18 01:42:18;;;;;;;56.80;28.23;;;;;;;;;;5105110;28;20084;-76
2023/09/18 01:44:45;;;;;;;74.30;29.25;;;;;;;;;;5111900;28;20146;-76
2023/09/18 01:47:12;;;;;;;96.65;27.95;;;;;;;;;;5104847;28;20043;-76
2023/09/18 01:49:39;;;;;;;161.80;32.67;;;;;;;;;;5099943;28;20164;-76
2023/09/18 01:52:06;;;;;;;135.63;30.33;;;;;;;;;;5107605;28;20162;-75
2023/09/18 01:54:33;;;;;;;115.95;30.23;;;;;;;;;;5108488;28;20118;-76
2023/09/18 01:57:00;;;;;;;155.48;29.60;;;;;;;;;;5108931;28;20391;-76
2023/09/18 01:59:26;;;;;;;278.10;41.25;;;;;;;;;;5105034;28;20479;-76
2023/09/18 02:01:53;;;;;;;157.95;33.13;;;;;;;;;;5112331;28;20123;-76
2023/09/18 02:04:19;;;;;;;137.00;31.80;;;;;;;;;;5111224;28;20046;-76
2023/09/18 02:06:46;;;;;;;130.27;31.33;;;;;;;;;;5112469;28;20109;-76
2023/09/18 02:09:12;;;;;;;120.32;31.95;;;;;;;;;;5106822;28;20107;-76
2023/09/18 02:11:40;;;;;;;186.88;34.53;;;;;;;;;;5114058;28;20100;-76
2023/09/18 02:14:07;;;;;;;117.82;30.77;;;;;;;;;;5114682;28;20036;-76
2023/09/18 02:16:36;;;;;;;127.57;34.13;;;;;;;;;;5105108;28;20040;-76
2023/09/18 02:19:03;;;;;;;76.18;30.52;;;;;;;;;;5099926;28;20391;-76
2023/09/18 02:21:29;;;;;;;60.65;30.05;;;;;;;;;;5098018;28;20050;-76
2023/09/18 02:23:55;;;;;;;51.42;29.08;;;;;;;;;;5104627;28;20039;-76
2023/09/18 02:26:22;;;;;;;46.42;29.42;;;;;;;;;;5100614;27;20059;-76
2023/09/18 02:28:48;;;;;;;49.92;29.83;;;;;;;;;;5110598;28;20035;-76
2023/09/18 02:31:14;;;;;;;51.78;31.02;;;;;;;;;;5094658;28;20089;-76
2023/09/18 02:33:41;;;;;;;51.55;29.55;;;;;;;;;;5095209;28;20135;-76
2023/09/18 02:36:07;;;;;;;52.28;31.65;;;;;;;;;;5103029;28;20127;-76
2023/09/18 02:38:33;;;;;;;48.63;30.02;;;;;;;;;;5103730;28;20099;-76
2023/09/18 02:41:00;;;;;;;47.08;29.58;;;;;;;;;;5104600;28;20044;-76
2023/09/18 02:43:26;;;;;;;49.58;30.52;;;;;;;;;;5111046;28;20035;-76
2023/09/18 02:45:52;;;;;;;47.85;30.13;;;;;;;;;;5106033;28;20071;-76
2023/09/18 02:48:19;;;;;;;46.58;30.45;;;;;;;;;;5112042;28;20452;-76
2023/09/18 02:50:45;;;;;;;53.42;32.20;;;;;;;;;;5112884;28;20047;-76
2023/09/18 02:53:25;;;;;;;48.88;31.52;;;;;;;;;;5106297;28;20387;-76
2023/09/18 02:55:52;;;;;;;51.72;33.30;;;;;;;;;;5100401;28;20563;-76
2023/09/18 02:58:19;;;;;;;59.20;34.35;;;;;;;;;;5105821;28;20035;-76
2023/09/18 03:00:45;;;;;;;49.97;32.70;;;;;;;;;;5098791;28;20511;-76
2023/09/18 03:03:12;;;;;;;55.70;34.10;;;;;;;;;;5102164;28;20048;-76
2023/09/18 03:05:38;;;;;;;51.67;33.03;;;;;;;;;;5111326;28;20051;-76
2023/09/18 03:08:04;;;;;;;59.63;35.47;;;;;;;;;;5104353;28;20118;-76
2023/09/18 03:10:37;;;;;;;61.42;35.22;;;;;;;;;;5098866;28;20485;-76
2023/09/18 03:13:03;;;;;;;62.13;34.95;;;;;;;;;;5114165;27;20478;-76
2023/09/18 03:15:30;;;;;;;59.63;35.13;;;;;;;;;;5116073;27;20036;-76
2023/09/18 03:17:57;;;;;;;58.10;34.13;;;;;;;;;;5106988;28;20054;-76
2023/09/18 03:20:23;;;;;;;59.58;36.42;;;;;;;;;;5108520;27;20066;-76
2023/09/18 03:22:50;;;;;;;59.15;34.67;;;;;;;;;;5094049;28;20040;-76
2023/09/18 03:25:16;;;;;;;57.60;33.97;;;;;;;;;;5109874;28;20120;-76
2023/09/18 03:27:42;;;;;;;56.53;35.15;;;;;;;;;;5099228;28;20460;-76
2023/09/18 03:30:08;;;;;;;54.70;34.08;;;;;;;;;;5109418;28;20043;-76
2023/09/18 03:32:35;;;;;;;62.13;35.53;;;;;;;;;;5112406;28;20042;-76
2023/09/18 03:35:02;;;;;;;54.40;33.97;;;;;;;;;;5108220;28;20086;-76
2023/09/18 03:37:28;;;;;;;57.00;35.45;;;;;;;;;;5113907;28;20055;-76
2023/09/18 03:39:54;;;;;;;58.53;34.80;;;;;;;;;;5103608;28;20093;-76
2023/09/18 03:42:21;;;;;;;54.55;35.15;;;;;;;;;;5096601;28;20044;-76
2023/09/18 03:44:47;;;;;;;57.88;35.25;;;;;;;;;;5110176;28;20507;-76
2023/09/18 03:47:13;;;;;;;56.85;35.28;;;;;;;;;;5104462;28;20048;-76
2023/09/18 03:49:39;;;;;;;54.78;34.65;;;;;;;;;;5106810;28;20056;-76
2023/09/18 03:52:05;;;;;;;58.53;34.95;;;;;;;;;;5100953;28;20077;-76
2023/09/18 03:54:31;;;;;;;57.50;34.75;;;;;;;;;;5100665;28;20039;-77
2023/09/18 03:56:57;;;;;;;57.17;35.15;;;;;;;;;;5104648;28;20048;-76
2023/09/18 03:59:23;;;;;;;54.20;33.30;;;;;;;;;;5109739;28;20525;-76
2023/09/18 04:01:49;;;;;;;53.85;34.65;;;;;;;;;;5110421;28;20050;-76
2023/09/18 04:04:16;;;;;;;56.63;33.92;;;;;;;;;;5111965;28;20119;-76
2023/09/18 04:06:43;;;;;;;57.42;34.47;;;;;;;;;;5111071;28;20055;-76
2023/09/18 04:09:09;;;;;;;51.55;33.50;;;;;;;;;;5100459;28;20105;-76
2023/09/18 04:11:35;;;;;;;50.53;34.55;;;;;;;;;;5107326;28;20042;-76
2023/09/18 04:14:05;;;;;;;50.92;33.00;;;;;;;;;;5106487;28;20455;-76
2023/09/18 04:16:31;;;;;;;55.25;34.33;;;;;;;;;;5108608;28;20044;-76
2023/09/18 04:18:57;;;;;;;51.63;32.88;;;;;;;;;;5104956;28;20035;-76
2023/09/18 04:21:25;;;;;;;51.22;34.40;;;;;;;;;;5110493;28;20055;-76
2023/09/18 04:23:55;;;;;;;53.03;34.70;;;;;;;;;;5105975;28;20051;-76
2023/09/18 04:26:22;;;;;;;45.85;31.60;;;;;;;;;;5105346;28;20068;-76
2023/09/18 04:28:48;;;;;;;50.13;34.03;;;;;;;;;;5110019;28;20108;-76
2023/09/18 04:31:14;;;;;;;50.20;32.88;;;;;;;;;;5108524;28;20040;-76
2023/09/18 04:33:40;;;;;;;51.25;32.95;;;;;;;;;;5106726;28;20097;-76
2023/09/18 04:36:06;;;;;;;46.33;32.30;;;;;;;;;;5097130;28;20044;-76
2023/09/18 04:38:32;;;;;;;47.47;32.45;;;;;;;;;;5103767;28;20052;-76
2023/09/18 04:40:59;;;;;;;44.90;30.95;;;;;;;;;;5108096;28;20073;-76
2023/09/18 04:43:25;;;;;;;44.83;31.80;;;;;;;;;;5106421;28;20048;-76
2023/09/18 04:45:51;;;;;;;46.22;31.35;;;;;;;;;;5115238;28;20035;-76
2023/09/18 04:48:18;;;;;;;48.55;31.88;;;;;;;;;;5116731;28;20502;-76
2023/09/18 04:50:44;;;;;;;47.20;31.10;;;;;;;;;;5113840;28;20130;-76
2023/09/18 04:53:10;;;;;;;41.47;30.17;;;;;;;;;;5110779;28;20036;-76
2023/09/18 04:55:38;;;;;;;41.22;29.45;;;;;;;;;;5109493;28;20040;-76
2023/09/18 04:58:05;;;;;;;38.05;27.13;;;;;;;;;;5110124;28;20135;-76
2023/09/18 05:00:31;;;;;;;40.92;29.20;;;;;;;;;;5114433;28;20433;-77
2023/09/18 05:03:01;;;;;;;39.75;28.33;;;;;;;;;;5097040;28;20166;-76
2023/09/18 05:05:29;;;;;;;39.75;27.67;;;;;;;;;;5110207;28;20048;-76
2023/09/18 05:07:55;;;;;;;42.15;29.30;;;;;;;;;;5107244;28;20048;-76
2023/09/18 05:10:21;;;;;;;36.05;27.92;;;;;;;;;;5105034;28;20441;-76
2023/09/18 05:12:49;;;;;;;41.20;27.48;;;;;;;;;;5110711;28;20043;-76
2023/09/18 05:15:15;;;;;;;35.22;25.45;;;;;;;;;;5111560;28;20048;-76
2023/09/18 05:17:46;;;;;;;32.20;24.42;;;;;;;;;;5104580;28;20055;-76
2023/09/18 05:20:13;;;;;;;35.38;26.42;;;;;;;;;;5113241;28;20089;-77
2023/09/18 05:22:40;;;;;;;36.08;24.38;;;;;;;;;;5111091;28;20055;-76
2023/09/18 05:25:06;;;;;;;34.17;24.80;;;;;;;;;;5102023;28;20352;-76
2023/09/18 05:27:33;;;;;;;34.50;23.80;;;;;;;;;;5115968;28;20126;-76
2023/09/18 05:29:59;;;;;;;32.60;24.40;;;;;;;;;;5102452;28;20035;-77
2023/09/18 05:32:25;;;;;;;30.10;23.30;;;;;;;;;;5116277;28;20135;-77
2023/09/18 05:34:51;;;;;;;31.85;23.92;;;;;;;;;;5111559;28;20166;-77
2023/09/18 05:37:17;;;;;;;34.70;24.10;;;;;;;;;;5094261;28;20166;-77
2023/09/18 05:39:43;;;;;;;32.85;23.45;;;;;;;;;;5101410;28;20052;-77
2023/09/18 05:42:09;;;;;;;29.58;22.88;;;;;;;;;;5104905;28;20035;-76
2023/09/18 05:44:39;;;;;;;30.45;22.58;;;;;;;;;;5114651;28;20058;-79
2023/09/18 05:47:05;;;;;;;31.77;23.38;;;;;;;;;;5115749;27;20040;-76
2023/09/18 05:49:31;;;;;;;30.88;22.98;;;;;;;;;;5102429;28;20052;-77
2023/09/18 05:51:57;;;;;;;31.45;21.17;;;;;;;;;;5114434;28;20126;-76
2023/09/18 05:54:23;;;;;;;31.63;21.67;;;;;;;;;;5115591;28;20123;-76
2023/09/18 05:56:49;;;;;;;30.02;21.23;;;;;;;;;;5108017;28;20074;-76
2023/09/18 05:59:16;;;;;;;28.05;21.17;;;;;;;;;;5101976;28;20040;-78
2023/09/18 06:01:42;;;;;;;26.00;20.30;;;;;;;;;;5104558;28;20043;-81
2023/09/18 06:04:08;;;;;;;29.70;21.60;;;;;;;;;;5099454;28;20062;-80
2023/09/18 06:06:34;;;;;;;25.25;20.48;;;;;;;;;;5101610;28;20044;-79
2023/09/18 06:09:00;;;;;;;24.00;19.90;;;;;;;;;;5098074;28;20059;-78
2023/09/18 06:11:26;;;;;;;29.02;20.45;;;;;;;;;;5100307;28;20419;-78
2023/09/18 06:13:52;;;;;;;23.85;18.70;;;;;;;;;;5113464;27;20042;-78
2023/09/18 06:16:18;;;;;;;26.15;20.20;;;;;;;;;;5103947;28;20064;-78
2023/09/18 06:18:45;;;;;;;23.65;18.80;;;;;;;;;;5114537;28;20054;-78
2023/09/18 06:21:11;;;;;;;25.58;18.00;;;;;;;;;;5112970;28;20043;-78
2023/09/18 06:23:37;;;;;;;23.85;17.98;;;;;;;;;;5113592;28;20103;-78
2023/09/18 06:26:04;;;;;;;25.30;18.55;;;;;;;;;;5115845;28;20053;-78
2023/09/18 06:28:30;;;;;;;27.60;19.13;;;;;;;;;;5108980;28;20520;-78
2023/09/18 06:30:56;;;;;;;24.92;18.23;;;;;;;;;;5096315;28;20051;-78
2023/09/18 06:33:23;;;;;;;28.15;17.90;;;;;;;;;;5098278;28;20042;-78
2023/09/18 06:35:49;;;;;;;25.35;18.10;;;;;;;;;;5094430;28;20040;-78
2023/09/18 06:38:15;;;;;;;23.00;17.63;;;;;;;;;;5109650;28;20047;-79
2023/09/18 06:40:41;;;;;;;23.45;17.92;;;;;;;;;;5111209;28;20065;-78
2023/09/18 06:43:07;;;;;;;23.13;17.58;;;;;;;;;;5113792;28;20483;-78
2023/09/18 06:45:33;;;;;;;23.23;18.27;;;;;;;;;;5113158;28;20089;-78
2023/09/18 06:48:03;;;;;;;21.08;17.23;;;;;;;;;;5108273;28;20047;-78
2023/09/18 06:50:29;;;;;;;23.00;16.67;;;;;;;;;;5093625;28;20063;-78
2023/09/18 06:52:55;;;;;;;21.75;16.33;;;;;;;;;;5110878;28;20039;-78
2023/09/18 06:55:21;;;;;;;20.55;16.25;;;;;;;;;;5098976;28;20117;-78
2023/09/18 06:57:48;;;;;;;24.75;16.98;;;;;;;;;;5095415;28;20115;-78
2023/09/18 07:00:15;;;;;;;23.88;17.10;;;;;;;;;;5113348;28;20047;-78
2023/09/18 07:02:41;;;;;;;24.25;17.10;;;;;;;;;;5125585;27;20051;-79
2023/09/18 07:05:07;;;;;;;25.58;17.27;;;;;;;;;;5106758;27;20040;-78
2023/09/18 07:07:33;;;;;;;24.67;16.65;;;;;;;;;;5107655;28;20051;-77
2023/09/18 07:09:59;;;;;;;23.83;16.02;;;;;;;;;;5099513;27;20044;-79
2023/09/18 07:12:25;;;;;;;26.70;16.40;;;;;;;;;;5107229;27;20054;-78
2023/09/18 07:14:51;;;;;;;24.38;14.77;;;;;;;;;;5114467;28;20122;-77
2023/09/18 07:17:17;;;;;;;21.58;15.27;;;;;;;;;;5102139;27;20047;-80
2023/09/18 07:19:44;;;;;;;20.10;13.43;;;;;;;;;;5114958;28;20047;-76
2023/09/18 07:22:10;;;;;;;17.23;11.73;;;;;;;;;;5104397;28;20051;-80
2023/09/18 07:24:36;;;;;;;20.05;12.75;;;;;;;;;;5104932;28;20089;-81
2023/09/18 07:27:03;;;;;;;15.38;11.27;;;;;;;;;;5103070;28;20043;-83
2023/09/18 07:29:29;;;;;;;16.27;10.82;;;;;;;;;;5095162;28;20048;-79
2023/09/18 07:31:55;;;;;;;17.02;10.00;;;;;;;;;;5099895;28;20054;-79
2023/09/18 07:34:21;;;;;;;14.60;9.88;;;;;;;;;;5114050;28;20043;-78
2023/09/18 07:36:47;;;;;;;13.52;10.10;;;;;;;;;;5113242;28;20051;-80
2023/09/18 07:39:14;;;;;;;13.48;9.55;;;;;;;;;;5104823;28;20442;-79
2023/09/18 07:41:40;;;;;;;14.55;9.65;;;;;;;;;;5094231;28;20131;-78
2023/09/18 07:44:06;;;;;;;11.82;8.68;;;;;;;;;;5096922;28;20079;-80
2023/09/18 07:46:32;;;;;;;14.00;9.30;;;;;;;;;;5115183;28;20039;-80
2023/09/18 07:48:58;;;;;;;11.75;8.32;;;;;;;;;;5101311;28;20063;-81
2023/09/18 07:51:24;;;;;;;12.15;8.30;;;;;;;;;;5101937;28;20048;-81
2023/09/18 07:53:50;;;;;;;13.40;8.18;;;;;;;;;;5106133;28;20574;-77
2023/09/18 07:56:18;;;;;;;12.80;8.43;;;;;;;;;;5097718;28;20079;-77
2023/09/18 07:58:46;;;;;;;13.27;7.80;;;;;;;;;;5104970;28;20052;-77
2023/09/18 08:01:15;;;;;;;11.00;8.20;;;;;;;;;;5114063;28;20051;-78
2023/09/18 08:03:42;;;;;;;11.43;8.10;;;;;;;;;;5115494;28;20052;-78
2023/09/18 08:06:08;;;;;;;12.75;8.05;;;;;;;;;;5104569;28;20098;-79
2023/09/18 08:08:34;;;;;;;13.73;9.23;;;;;;;;;;5110414;28;20056;-79
2023/09/18 08:11:08;;;;;;;13.38;8.57;;;;;;;;;;5102079;28;20084;-79
2023/09/18 08:13:35;;;;;;;12.90;8.40;;;;;;;;;;5108531;28;20123;-79
2023/09/18 08:16:01;;;;;;;14.13;8.75;;;;;;;;;;5113592;28;20055;-78
2023/09/18 08:18:27;;;;;;;12.77;8.30;;;;;;;;;;5102866;28;20043;-78
2023/09/18 08:20:54;;;;;;;12.20;8.15;;;;;;;;;;5111688;28;20483;-77
2023/09/18 08:23:20;;;;;;;12.90;8.13;;;;;;;;;;5109369;28;20127;-77
2023/09/18 08:25:47;;;;;;;15.32;8.60;;;;;;;;;;5109719;28;20040;-77
2023/09/18 08:28:15;;;;;;;11.85;8.07;;;;;;;;;;5112060;28;20047;-79
2023/09/18 08:30:44;;;;;;;13.88;8.88;;;;;;;;;;5114479;28;20043;-79
2023/09/18 08:33:11;;;;;;;13.80;8.45;;;;;;;;;;5110213;28;20066;-79
2023/09/18 08:35:37;;;;;;;12.90;7.57;;;;;;;;;;5111714;28;20048;-79
2023/09/18 08:38:04;;;;;;;12.13;7.95;;;;;;;;;;5110996;28;20060;-79
2023/09/18 08:40:30;;;;;;;11.07;7.53;;;;;;;;;;5111486;28;20085;-79
2023/09/18 08:42:59;;;;;;;13.70;7.78;;;;;;;;;;5113712;28;20048;-79
2023/09/18 08:45:35;;;;;;;9.50;7.30;;;;;;;;;;5110933;28;20043;-79
2023/09/18 08:48:01;;;;;;;;;;;;;;;;;;5117553;28;20380;-79
2023/09/18 08:50:28;;;;;;;11.13;6.78;;;;;;;;;;5120218;28;20355;-79
2023/09/18 08:52:55;;;;;;;11.63;6.82;;;;;;;;;;5119954;28;20048;-79
2023/09/18 08:55:22;;;;;;;11.95;6.85;;;;;;;;;;5120743;28;20047;-79
2023/09/18 08:57:49;;;;;;;10.77;6.65;;;;;;;;;;5124395;28;20558;-79
2023/09/18 09:00:18;;;;;;;11.43;6.30;;;;;;;;;;5121777;28;20043;-81
2023/09/18 09:02:45;;;;;;;10.27;6.13;;;;;;;;;;5105092;28;20047;-79
2023/09/18 09:05:11;;;;;;;9.13;6.30;;;;;;;;;;5109133;28;20097;-80
2023/09/18 09:07:37;;;;;;;8.88;5.63;;;;;;;;;;5106214;28;20039;-81
2023/09/18 09:10:03;;;;;;;8.93;6.20;;;;;;;;;;5111913;28;20052;-81
2023/09/18 09:12:49;;;;;;;12.18;7.22;;;;;;;;;;5118887;28;20070;-81
2023/09/18 09:15:15;;;;;;;9.77;6.50;;;;;;;;;;5118497;27;20055;-81
2023/09/18 09:17:42;;;;;;;9.73;7.18;;;;;;;;;;5099371;28;20044;-82
2023/09/18 09:20:11;;;;;;;13.43;8.40;;;;;;;;;;5116305;28;20047;-83
2023/09/18 09:22:37;;;;;;;13.07;8.18;;;;;;;;;;5099239;28;20055;-84
2023/09/18 09:25:04;;;;;;;13.43;8.65;;;;;;;;;;5116015;28;20600;-83
2023/09/18 09:27:30;;;;;;;10.60;8.35;;;;;;;;;;5117938;28;20502;-81
2023/09/18 09:29:59;;;;;;;12.65;8.73;;;;;;;;;;5118654;28;20050;-82
2023/09/18 09:32:29;;;;;;;10.65;8.30;;;;;;;;;;5117829;28;20526;-82
2023/09/18 09:35:02;;;;;;;15.25;10.07;;;;;;;;;;5119335;28;20048;-82
2023/09/18 09:37:31;;;;;;;12.55;9.95;;;;;;;;;;5121895;27;20124;-82
2023/09/18 09:39:59;;;;;;;15.63;10.57;;;;;;;;;;5115728;28;20046;-79
2023/09/18 09:42:25;;;;;;;13.52;10.55;;;;;;;;;;5107639;28;20047;-78
2023/09/18 09:45:03;;;;;;;13.48;11.40;;;;;;;;;;5104387;28;20094;-79
2023/09/18 09:47:33;;;;;;;14.23;10.60;;;;;;;;;;5106861;28;20481;-80
2023/09/18 09:49:59;;;;;;;14.52;11.13;;;;;;;;;;5110661;28;20087;-80
2023/09/18 09:52:26;;;;;;;15.68;11.48;;;;;;;;;;5113867;28;20107;-81
2023/09/18 09:54:52;;;;;;;17.17;11.93;;;;;;;;;;5119500;28;20052;-78
2023/09/18 09:57:18;;;;;;;14.93;11.68;;;;;;;;;;5106867;28;20047;-78
2023/09/18 09:59:44;;;;;;;16.40;11.68;;;;;;;;;;5100270;28;20066;-78
2023/09/18 10:02:19;;;;;;;15.40;11.90;;;;;;;;;;5106189;28;20071;-78
2023/09/18 10:04:48;;;;;;;13.70;11.57;;;;;;;;;;5095772;28;20044;-78
2023/09/18 10:07:15;;;;;;;15.80;11.85;;;;;;;;;;5102589;28;20044;-78
2023/09/18 10:09:43;;;;;;;16.90;12.00;;;;;;;;;;5115348;28;20549;-78
2023/09/18 10:12:12;;;;;;;15.77;12.65;;;;;;;;;;5114630;28;20073;-78
2023/09/18 10:14:39;;;;;;;14.15;12.00;;;;;;;;;;5114497;28;20540;-77
2023/09/18 10:17:11;;;;;;;15.77;12.55;;;;;;;;;;5115227;28;20040;-77
2023/09/18 10:19:45;;;;;;;16.17;11.65;;;;;;;;;;5115456;28;20048;-77
2023/09/18 10:22:22;;;;;;;14.95;12.07;;;;;;;;;;5114818;28;20127;-78
2023/09/18 10:24:51;;;;;;;17.67;12.00;;;;;;;;;;5116769;28;20082;-78
2023/09/18 10:27:21;;;;;;;14.68;12.38;;;;;;;;;;5118547;28;20031;-82
2023/09/18 10:29:51;;;;;;;15.38;13.18;;;;;;;;;;5107602;28;20366;-79
2023/09/18 10:32:20;;;;;;;16.98;13.15;;;;;;;;;;5113038;28;20089;-80
2023/09/18 10:34:47;;;;;;;16.52;12.85;;;;;;;;;;5098765;28;20480;-79
2023/09/18 10:37:15;;;;;;;17.83;13.05;;;;;;;;;;5098918;28;20106;-78
2023/09/18 10:39:42;;;;;;;15.93;13.57;;;;;;;;;;5114835;28;20085;-78
2023/09/18 10:42:09;;;;;;;15.55;13.02;;;;;;;;;;5115202;27;20110;-78
2023/09/18 10:44:35;;;;;;;14.95;13.02;;;;;;;;;;5111275;28;20127;-78
2023/09/18 10:47:03;;;;;;;15.23;12.90;;;;;;;;;;5115138;28;20048;-78
2023/09/18 10:49:29;;;;;;;14.35;12.85;;;;;;;;;;5111100;27;20040;-78
2023/09/18 10:51:56;;;;;;;14.70;13.30;;;;;;;;;;5113232;28;20124;-78
2023/09/18 10:54:24;;;;;;;14.32;12.93;;;;;;;;;;5108383;27;20052;-78
2023/09/18 10:56:50;;;;;;;16.35;14.18;;;;;;;;;;5099288;28;20040;-78
2023/09/18 10:59:17;;;;;;;14.65;13.02;;;;;;;;;;5106425;28;20063;-78
2023/09/18 11:01:44;;;;;;;15.20;13.00;;;;;;;;;;5094402;28;20051;-79
2023/09/18 11:04:10;;;;;;;14.88;13.38;;;;;;;;;;5099593;28;20032;-78
2023/09/18 11:06:55;;;;;;;14.57;13.07;;;;;;;;;;5106363;28;20047;-77
2023/09/18 11:09:21;;;;;;;13.45;12.15;;;;;;;;;;5101685;28;20463;-77
2023/09/18 11:11:48;;;;;;;15.88;11.73;;;;;;;;;;5103015;28;20062;-77
2023/09/18 11:14:15;;;;;;;12.80;11.38;;;;;;;;;;5098583;28;20059;-77
2023/09/18 11:16:41;;;;;;;12.93;11.63;;;;;;;;;;5113328;28;20036;-77
2023/09/18 11:19:11;;;;;;;11.80;10.60;;;;;;;;;;5108673;28;20118;-77
2023/09/18 11:21:38;;;;;;;11.68;9.95;;;;;;;;;;5107379;28;20074;-77
2023/09/18 11:24:05;;;;;;;11.23;10.13;;;;;;;;;;5109280;28;20036;-77
2023/09/18 11:26:35;;;;;;;11.32;9.68;;;;;;;;;;5093815;28;20047;-76
2023/09/18 11:29:05;;;;;;;11.35;10.15;;;;;;;;;;5113602;28;20088;-76
2023/09/18 11:31:47;;;;;;;9.68;8.35;;;;;;;;;;5100201;28;20051;-76
2023/09/18 11:34:13;;;;;;;8.73;7.82;;;;;;;;;;5112574;28;20487;-77
2023/09/18 11:36:39;;;;;;;8.68;7.88;;;;;;;;;;5114101;28;20043;-77
2023/09/18 11:39:05;;;;;;;8.05;7.25;;;;;;;;;;5113855;28;20039;-76
2023/09/18 11:41:38;;;;;;;8.63;7.72;;;;;;;;;;5100464;28;20483;-76
2023/09/18 11:44:19;;;;;;;8.77;7.93;;;;;;;;;;5111386;28;20047;-76
2023/09/18 11:46:55;;;;;;;8.10;7.05;;;;;;;;;;5094756;28;20461;-76
2023/09/18 11:49:22;;;;;;;7.63;6.95;;;;;;;;;;5094659;28;20555;-76
2023/09/18 11:51:49;;;;;;;7.30;6.32;;;;;;;;;;5100398;28;20044;-76
2023/09/18 11:54:16;;;;;;;7.60;5.50;;;;;;;;;;5112265;28;20054;-76
2023/09/18 11:56:43;;;;;;;6.10;4.50;;;;;;;;;;5112031;28;20115;-76
2023/09/18 11:59:10;;;;;;;5.70;4.88;;;;;;;;;;5108541;28;20043;-76
2023/09/18 12:01:39;;;;;;;6.60;4.55;;;;;;;;;;5113598;28;20040;-76
2023/09/18 12:04:09;;;;;;;6.15;4.28;;;;;;;;;;5100420;28;20047;-76
2023/09/18 12:06:39;;;;;;;7.75;5.00;;;;;;;;;;5107174;28;20052;-76
2023/09/18 12:09:06;;;;;;;6.18;4.22;;;;;;;;;;5104560;28;20036;-76
2023/09/18 12:11:35;;;;;;;7.03;4.50;;;;;;;;;;5111908;28;20043;-76
2023/09/18 12:14:04;;;;;;;8.43;4.60;;;;;;;;;;5113416;28;20047;-76
2023/09/18 12:16:30;;;;;;;6.38;4.38;;;;;;;;;;5114025;28;20495;-76
2023/09/18 12:18:56;;;;;;;6.85;4.32;;;;;;;;;;5109725;28;20046;-76
2023/09/18 12:21:23;;;;;;;6.88;4.88;;;;;;;;;;5096313;28;20071;-76
2023/09/18 12:23:50;;;;;;;9.95;5.80;;;;;;;;;;5098107;28;20070;-76
2023/09/18 12:26:19;;;;;;;9.25;5.93;;;;;;;;;;5106739;28;20048;-76
2023/09/18 12:28:45;;;;;;;8.23;6.75;;;;;;;;;;5100218;28;20043;-76
2023/09/18 12:31:14;;;;;;;7.78;6.72;;;;;;;;;;5102086;28;20043;-76
2023/09/18 12:33:43;;;;;;;8.30;6.75;;;;;;;;;;5115045;28;20448;-76
2023/09/18 12:36:09;;;;;;;8.43;6.63;;;;;;;;;;5117136;28;20101;-75
2023/09/18 12:38:36;;;;;;;7.63;6.88;;;;;;;;;;5116756;28;20100;-75
2023/09/18 12:41:06;;;;;;;7.50;6.70;;;;;;;;;;5116241;27;20040;-76
2023/09/18 12:43:36;;;;;;;8.07;6.57;;;;;;;;;;5115149;28;20050;-76
2023/09/18 12:46:03;;;;;;;7.47;6.18;;;;;;;;;;5113965;28;20043;-75
2023/09/18 12:48:29;;;;;;;9.68;6.57;;;;;;;;;;5102978;28;20088;-75
2023/09/18 12:50:55;;;;;;;8.75;6.82;;;;;;;;;;5105755;28;20503;-77
2023/09/18 12:53:24;;;;;;;11.02;6.57;;;;;;;;;;5104793;28;20058;-76
2023/09/18 12:55:50;;;;;;;8.60;6.68;;;;;;;;;;5116366;28;20046;-76
2023/09/18 12:58:20;;;;;;;7.85;5.55;;;;;;;;;;5116244;28;20464;-76
2023/09/18 13:00:47;;;;;;;7.25;5.90;;;;;;;;;;5114086;28;20047;-76
2023/09/18 13:03:13;;;;;;;8.43;6.63;;;;;;;;;;5116948;28;20047;-76
2023/09/18 13:05:39;;;;;;;8.32;6.65;;;;;;;;;;5116925;28;20062;-76
2023/09/18 13:08:06;;;;;;;7.20;6.50;;;;;;;;;;5117047;28;20039;-76
2023/09/18 13:10:45;;;;;;;7.43;6.53;;;;;;;;;;5116399;28;20050;-76
2023/09/18 13:13:21;;;;;;;8.45;6.55;;;;;;;;;;5109994;28;20426;-76
2023/09/18 13:15:48;;;;;;;7.90;6.43;;;;;;;;;;5110759;28;20096;-75
2023/09/18 13:18:15;;;;;;;6.60;5.90;;;;;;;;;;5100844;28;20036;-75
2023/09/18 13:20:41;;;;;;;8.18;7.18;;;;;;;;;;5109908;28;20078;-75
2023/09/18 13:23:08;;;;;;;7.40;6.50;;;;;;;;;;5111231;28;20063;-75
2023/09/18 13:25:37;;;;;;;10.88;5.75;;;;;;;;;;5112131;27;20075;-76
2023/09/18 13:28:04;;;;;;;8.07;7.15;;;;;;;;;;5106846;28;20047;-76
2023/09/18 13:30:31;;;;;;;6.75;6.05;;;;;;;;;;5114661;28;20046;-77
2023/09/18 13:33:08;;;;;;;9.32;6.65;;;;;;;;;;5111173;28;20440;-76
2023/09/18 13:35:37;;;;;;;7.10;6.40;;;;;;;;;;5097613;27;20115;-76
2023/09/18 13:38:05;;;;;;;7.47;6.85;;;;;;;;;;5109748;28;20123;-76
2023/09/18 13:40:33;;;;;;;7.63;6.93;;;;;;;;;;5113993;28;20051;-76
2023/09/18 13:42:59;;;;;;;9.40;6.93;;;;;;;;;;5114810;28;20498;-76
2023/09/18 13:45:25;;;;;;;7.63;6.93;;;;;;;;;;5116236;28;20097;-77
2023/09/18 13:47:51;;;;;;;7.43;6.72;;;;;;;;;;5105299;28;20040;-77
2023/09/18 13:50:17;;;;;;;8.25;7.32;;;;;;;;;;5113583;27;20040;-76
2023/09/18 13:52:43;;;;;;;7.85;7.07;;;;;;;;;;5103881;28;20036;-76
2023/09/18 13:55:09;;;;;;;8.45;7.65;;;;;;;;;;5104761;28;20092;-76
2023/09/18 13:57:36;;;;;;;7.85;6.93;;;;;;;;;;5114554;28;20124;-77
2023/09/18 14:00:06;;;;;;;7.60;6.90;;;;;;;;;;5107913;27;20506;-78
2023/09/18 14:02:32;;;;;;;8.02;6.10;;;;;;;;;;5114544;28;20480;-82
2023/09/18 14:04:58;;;;;;;7.55;5.75;;;;;;;;;;5104644;28;20497;-77
2023/09/18 14:07:25;;;;;;;7.05;6.35;;;;;;;;;;5114903;28;20133;-76
2023/09/18 14:09:51;;;;;;;5.13;4.30;;;;;;;;;;5101826;28;20122;-76
2023/09/18 14:12:17;;;;;;;6.28;4.60;;;;;;;;;;5111178;28;20123;-77
2023/09/18 14:14:43;;;;;;;5.07;4.30;;;;;;;;;;5104204;28;20048;-76
2023/09/18 14:17:10;;;;;;;4.50;4.10;;;;;;;;;;5103541;28;20047;-76
2023/09/18 14:19:40;;;;;;;4.05;3.63;;;;;;;;;;5114910;28;20423;-76
2023/09/18 14:22:06;;;;;;;4.28;3.40;;;;;;;;;;5115269;28;20107;-77
2023/09/18 14:24:34;;;;;;;3.42;3.13;;;;;;;;;;5111537;27;20043;-76